createdAt,value
2022-09-21T00:01:58.351Z,1.30
2022-09-21T00:05:00.446Z,1.33
2022-09-21T00:08:05.498Z,1.70
2022-09-21T00:11:08.927Z,1.48
2022-09-21T00:14:14.674Z,1.55
2022-09-21T00:17:16.824Z,1.30
2022-09-21T00:20:20.616Z,1.20
2022-09-21T00:23:24.677Z,1.42
2022-09-21T00:26:27.974Z,1.35
2022-09-21T00:29:29.988Z,1.23
2022-09-21T00:32:34.902Z,1.10
2022-09-21T00:35:38.534Z,1.20
2022-09-21T00:38:41.970Z,1.10
2022-09-21T00:41:44.130Z,1.15
2022-09-21T00:44:46.716Z,1.23
2022-09-21T00:47:53.479Z,1.10
2022-09-21T00:50:59.709Z,0.73
2022-09-21T00:54:07.760Z,0.90
2022-09-21T00:57:11.668Z,1.10
2022-09-21T01:00:14.728Z,1.10
2022-09-21T01:03:17.015Z,0.93
2022-09-21T01:06:21.395Z,1.05
2022-09-21T01:09:24.346Z,1.08
2022-09-21T01:12:38.535Z,1.55
2022-09-21T01:16:12.099Z,1.10
2022-09-21T01:19:48.175Z,1.35
2022-09-21T01:23:21.655Z,0.88
2022-09-21T01:26:38.457Z,1.20
2022-09-21T01:29:52.121Z,1.00
2022-09-21T01:33:07.414Z,0.93
2022-09-21T01:36:15.429Z,1.02
2022-09-21T01:39:21.453Z,1.13
2022-09-21T01:42:27.142Z,0.70
2022-09-21T01:45:36.786Z,0.82
2022-09-21T01:48:42.640Z,0.90
2022-09-21T01:51:50.977Z,1.15
2022-09-21T01:54:59.708Z,0.80
2022-09-21T01:58:10.183Z,0.95
2022-09-21T02:01:17.723Z,0.88
2022-09-21T02:04:20.030Z,1.00
2022-09-21T02:07:23.578Z,1.00
2022-09-21T02:10:36.970Z,0.90
2022-09-21T02:13:44.905Z,0.70
2022-09-21T02:17:05.353Z,0.75
2022-09-21T02:20:08.279Z,0.98
2022-09-21T02:23:36.604Z,0.77
2022-09-21T02:26:46.747Z,0.68
2022-09-21T02:30:15.030Z,0.75
2022-09-21T02:33:32.905Z,0.70
2022-09-21T02:36:47.035Z,0.60
2022-09-21T02:39:56.904Z,0.85
2022-09-21T02:43:04.135Z,0.90
2022-09-21T02:46:23.750Z,0.75
2022-09-21T02:49:31.904Z,0.73
2022-09-21T02:52:37.632Z,0.88
2022-09-21T02:55:41.085Z,0.60
2022-09-21T02:59:00.000Z,0.88
2022-09-21T03:02:02.470Z,0.77
2022-09-21T03:05:05.894Z,1.30
2022-09-21T03:08:08.134Z,0.70
2022-09-21T03:11:12.500Z,0.70
2022-09-21T03:14:15.078Z,0.68
2022-09-21T03:17:17.599Z,0.55
2022-09-21T03:20:19.646Z,0.65
2022-09-21T03:23:22.354Z,0.55
2022-09-21T03:26:24.618Z,0.70
2022-09-21T03:29:27.258Z,0.60
2022-09-21T03:32:29.279Z,0.70
2022-09-21T03:35:34.390Z,0.63
2022-09-21T03:38:37.736Z,0.75
2022-09-21T03:41:40.160Z,0.60
2022-09-21T03:44:42.226Z,0.80
2022-09-21T03:47:44.783Z,1.17
2022-09-21T03:50:47.112Z,0.65
2022-09-21T03:53:49.378Z,0.60
2022-09-21T03:56:51.646Z,0.57
2022-09-21T03:59:55.216Z,0.60
2022-09-21T04:02:57.510Z,0.60
2022-09-21T04:06:00.409Z,0.40
2022-09-21T04:09:02.730Z,0.70
2022-09-21T04:12:05.445Z,0.68
2022-09-21T04:15:08.734Z,0.52
2022-09-21T04:18:12.798Z,0.65
2022-09-21T04:21:14.774Z,0.60
2022-09-21T04:24:19.410Z,0.57
2022-09-21T04:30:23.732Z,0.40
2022-09-21T04:33:25.864Z,0.60
2022-09-21T04:36:33.167Z,0.38
2022-09-21T04:39:38.515Z,0.40
2022-09-21T04:42:41.334Z,0.50
2022-09-21T04:45:43.366Z,0.50
2022-09-21T04:48:46.584Z,0.47
2022-09-21T04:51:49.008Z,0.52
2022-09-21T04:54:51.287Z,0.80
2022-09-21T04:57:53.372Z,0.50
2022-09-21T05:00:56.842Z,0.60
2022-09-21T05:04:02.117Z,0.70
2022-09-21T05:07:04.877Z,0.35
2022-09-21T05:10:08.637Z,0.50
2022-09-21T05:13:11.641Z,0.40
2022-09-21T05:16:15.427Z,0.50
2022-09-21T05:19:17.975Z,0.40
2022-09-21T05:22:21.164Z,0.60
2022-09-21T05:25:23.672Z,0.40
2022-09-21T05:28:27.433Z,0.40
2022-09-21T05:31:51.945Z,0.40
2022-09-21T05:35:19.015Z,0.60
2022-09-21T05:38:21.787Z,0.50
2022-09-21T05:41:24.634Z,0.77
2022-09-21T05:44:27.618Z,0.40
2022-09-21T05:47:56.174Z,0.40
2022-09-21T05:51:13.500Z,0.43
2022-09-21T05:54:26.781Z,0.55
2022-09-21T05:57:49.524Z,0.50
2022-09-21T06:01:35.815Z,0.40
2022-09-21T06:04:38.620Z,0.35
2022-09-21T06:07:41.772Z,0.20
2022-09-21T06:10:44.168Z,0.33
2022-09-21T06:13:46.401Z,0.50
2022-09-21T06:16:48.859Z,0.60
2022-09-21T06:19:50.977Z,0.77
2022-09-21T06:22:53.777Z,0.93
2022-09-21T06:25:58.495Z,0.63
2022-09-21T06:29:01.595Z,0.70
2022-09-21T06:32:05.087Z,1.48
2022-09-21T06:35:09.632Z,0.90
2022-09-21T06:38:11.757Z,0.70
2022-09-21T06:41:20.138Z,0.65
2022-09-21T06:44:23.806Z,0.68
2022-09-21T06:47:26.717Z,0.98
2022-09-21T06:50:29.310Z,0.80
2022-09-21T06:53:34.078Z,0.75
2022-09-21T06:56:38.344Z,0.90
2022-09-21T06:59:41.035Z,0.65
2022-09-21T07:02:46.754Z,0.70
2022-09-21T07:05:50.301Z,0.73
2022-09-21T07:12:16.210Z,0.63
2022-09-21T07:15:23.241Z,0.80
2022-09-21T07:18:26.290Z,0.75
2022-09-21T07:21:29.080Z,0.60
2022-09-21T07:24:31.755Z,0.65
2022-09-21T07:27:34.813Z,0.40
2022-09-21T07:30:39.257Z,0.70
2022-09-21T07:33:42.532Z,0.73
2022-09-21T07:36:45.188Z,0.70
2022-09-21T07:39:47.537Z,0.75
2022-09-21T07:42:50.213Z,1.30
2022-09-21T07:45:57.534Z,0.55
2022-09-21T07:49:00.264Z,0.63
2022-09-21T07:52:06.484Z,0.60
2022-09-21T07:55:12.087Z,0.70
2022-09-21T07:58:33.062Z,0.80
2022-09-21T08:01:41.410Z,1.00
2022-09-21T08:04:43.708Z,0.98
2022-09-21T08:07:46.056Z,0.80
2022-09-21T08:10:48.011Z,0.60
2022-09-21T08:13:54.656Z,0.80
2022-09-21T08:16:56.890Z,1.08
2022-09-21T08:19:59.241Z,0.75
2022-09-21T08:23:02.670Z,0.68
2022-09-21T08:26:07.064Z,0.98
2022-09-21T08:29:09.740Z,0.70
2022-09-21T08:32:27.513Z,0.80
2022-09-21T08:35:37.298Z,0.40
2022-09-21T08:38:40.460Z,0.70
2022-09-21T08:41:57.923Z,0.93
2022-09-21T08:45:06.859Z,0.70
2022-09-21T08:48:36.668Z,0.68
2022-09-21T08:51:59.033Z,0.80
2022-09-21T08:55:17.700Z,0.88
2022-09-21T08:58:25.523Z,0.50
2022-09-21T09:01:46.283Z,1.08
2022-09-21T09:04:55.136Z,0.73
2022-09-21T09:08:00.226Z,0.65
2022-09-21T09:11:05.597Z,1.02
2022-09-21T09:14:32.503Z,0.88
2022-09-21T09:18:12.870Z,0.68
2022-09-21T09:21:30.862Z,0.68
2022-09-21T09:24:43.980Z,0.60
2022-09-21T09:27:48.508Z,0.85
2022-09-21T09:30:59.354Z,0.80
2022-09-21T09:34:13.892Z,0.60
2022-09-21T09:37:18.684Z,0.60
2022-09-21T09:40:39.759Z,0.70
2022-09-21T09:43:48.731Z,0.70
2022-09-21T09:47:12.552Z,0.45
2022-09-21T09:50:28.989Z,0.77
2022-09-21T09:53:32.053Z,0.80
2022-09-21T09:56:34.609Z,0.80
2022-09-21T09:59:53.507Z,0.73
2022-09-21T10:02:59.203Z,1.30
2022-09-21T10:09:29.133Z,1.13
2022-09-21T10:12:31.697Z,0.90
2022-09-21T10:15:35.166Z,0.68
2022-09-21T10:18:46.093Z,0.98
2022-09-21T10:21:53.527Z,0.85
2022-09-21T10:24:56.698Z,0.60
2022-09-21T10:27:59.836Z,0.80
2022-09-21T10:31:19.501Z,0.70
2022-09-21T10:34:22.259Z,0.80
2022-09-21T10:37:31.074Z,0.73
2022-09-21T10:40:38.790Z,0.80
2022-09-21T10:43:43.954Z,0.82
2022-09-21T10:46:48.287Z,0.60
2022-09-21T10:52:59.966Z,0.60
2022-09-21T10:56:15.728Z,0.80
2022-09-21T10:59:33.783Z,0.80
2022-09-21T11:02:39.215Z,0.82
2022-09-21T11:05:44.219Z,0.60
2022-09-21T11:08:57.163Z,0.70
2022-09-21T11:12:35.911Z,0.82
2022-09-21T11:15:52.387Z,0.70
2022-09-21T11:19:14.504Z,0.80
2022-09-21T11:22:35.276Z,1.05
2022-09-21T11:26:01.044Z,1.00
2022-09-21T11:29:21.463Z,0.88
2022-09-21T11:32:45.966Z,0.98
2022-09-21T11:35:54.391Z,1.27
2022-09-21T11:39:36.966Z,1.00
2022-09-21T11:42:54.660Z,0.60
2022-09-21T11:46:16.980Z,0.82
2022-09-21T11:49:40.533Z,1.02
2022-09-21T11:53:01.037Z,0.95
2022-09-21T11:56:15.269Z,0.73
2022-09-21T12:03:16.838Z,0.65
2022-09-21T12:06:41.615Z,0.70
2022-09-21T12:09:56.144Z,0.88
2022-09-21T12:13:07.469Z,0.98
2022-09-21T12:16:30.893Z,0.88
2022-09-21T12:19:55.631Z,0.70
2022-09-21T12:23:06.430Z,0.60
2022-09-21T12:26:12.232Z,0.80
2022-09-21T12:29:18.579Z,0.73
2022-09-21T12:32:48.386Z,0.80
2022-09-21T12:36:18.079Z,0.60
2022-09-21T12:39:29.288Z,1.00
2022-09-21T12:42:46.216Z,0.90
2022-09-21T12:46:17.630Z,0.90
2022-09-21T12:49:33.081Z,0.70
2022-09-21T12:52:38.380Z,0.60
2022-09-21T12:55:44.862Z,0.47
2022-09-21T12:59:07.599Z,0.50
2022-09-21T13:02:20.570Z,0.70
2022-09-21T13:05:57.114Z,0.80
2022-09-21T13:09:04.241Z,0.60
2022-09-21T13:12:14.044Z,0.60
2022-09-21T13:15:25.849Z,0.40
2022-09-21T13:18:41.083Z,0.60
2022-09-21T13:25:03.478Z,0.75
2022-09-21T13:28:13.909Z,0.43
2022-09-21T13:31:37.103Z,0.63
2022-09-21T13:34:44.073Z,0.90
2022-09-21T13:38:27.154Z,0.75
2022-09-21T13:41:51.852Z,0.70
2022-09-21T13:44:58.403Z,0.73
2022-09-21T13:48:18.785Z,0.60
2022-09-21T13:51:22.454Z,0.70
2022-09-21T13:54:29.293Z,0.60
2022-09-21T13:57:52.381Z,0.70
2022-09-21T14:01:01.518Z,0.63
2022-09-21T14:04:19.232Z,0.63
2022-09-21T14:07:31.578Z,0.95
2022-09-21T14:10:37.859Z,0.43
2022-09-21T14:14:20.294Z,0.50
2022-09-21T14:17:41.307Z,0.40
2022-09-21T14:21:10.040Z,0.43
2022-09-21T14:24:21.084Z,0.50
2022-09-21T14:27:45.465Z,0.60
2022-09-21T14:31:04.337Z,0.60
2022-09-21T14:34:16.073Z,0.70
2022-09-21T14:37:33.957Z,0.55
2022-09-21T14:40:39.477Z,0.60
2022-09-21T14:43:42.780Z,0.70
2022-09-21T14:47:10.280Z,0.70
2022-09-21T14:50:30.524Z,0.60
2022-09-21T14:54:27.003Z,0.50
2022-09-21T14:58:08.249Z,0.77
2022-09-21T15:01:38.106Z,0.50
2022-09-21T15:04:50.168Z,0.75
2022-09-21T15:09:03.254Z,0.47
2022-09-21T15:12:44.863Z,0.40
2022-09-21T15:16:13.305Z,0.60
2022-09-21T15:19:16.774Z,0.60
2022-09-21T15:22:22.025Z,0.63
2022-09-21T15:25:34.469Z,0.60
2022-09-21T15:29:07.855Z,0.50
2022-09-21T15:32:09.514Z,0.60
2022-09-21T15:35:23.393Z,0.43
2022-09-21T15:38:36.714Z,0.60
2022-09-21T15:41:44.987Z,0.52
2022-09-21T15:44:49.301Z,0.50
2022-09-21T15:47:52.887Z,0.50
2022-09-21T15:51:27.418Z,0.57
2022-09-21T15:54:36.801Z,0.63
2022-09-21T15:57:44.766Z,0.60
2022-09-21T16:00:58.512Z,0.40
2022-09-21T16:04:10.763Z,0.57
2022-09-21T16:07:33.323Z,0.60
2022-09-21T16:10:42.054Z,0.50
2022-09-21T16:14:17.742Z,0.60
2022-09-21T16:17:29.974Z,0.68
2022-09-21T16:20:46.324Z,0.77
2022-09-21T16:23:59.181Z,0.60
2022-09-21T16:27:05.205Z,1.17
2022-09-21T16:30:48.079Z,0.82
2022-09-21T16:33:50.473Z,1.30
2022-09-21T16:36:55.297Z,1.58
2022-09-21T16:39:59.976Z,1.05
2022-09-21T16:43:06.850Z,0.98
2022-09-21T16:46:11.040Z,1.13
2022-09-21T16:49:20.904Z,1.00
2022-09-21T16:52:25.619Z,1.23
2022-09-21T16:55:29.396Z,1.35
2022-09-21T16:58:33.105Z,1.20
2022-09-21T17:04:39.777Z,1.70
2022-09-21T17:07:48.243Z,1.73
2022-09-21T17:10:53.959Z,1.48
2022-09-21T17:14:01.579Z,1.60
2022-09-21T17:17:10.913Z,1.33
2022-09-21T17:20:43.092Z,2.47
2022-09-21T17:23:46.397Z,1.65
2022-09-21T17:26:50.213Z,1.45
2022-09-21T17:29:55.613Z,1.10
2022-09-21T17:32:59.527Z,1.20
2022-09-21T17:36:02.702Z,1.20
2022-09-21T17:39:06.888Z,1.00
2022-09-21T17:42:20.014Z,1.38
2022-09-21T17:45:33.450Z,1.33
2022-09-21T17:48:40.042Z,0.90
2022-09-21T17:52:02.281Z,1.85
2022-09-21T17:55:12.216Z,1.00
2022-09-21T17:58:45.533Z,0.88
2022-09-21T18:01:49.375Z,1.38
2022-09-21T18:05:02.618Z,1.02
2022-09-21T18:08:08.321Z,1.08
2022-09-21T18:11:29.076Z,1.05
2022-09-21T18:14:41.626Z,0.80
2022-09-21T18:18:13.111Z,1.10
2022-09-21T18:21:26.632Z,1.33
2022-09-21T18:24:34.644Z,1.27
2022-09-21T18:27:39.548Z,1.02
2022-09-21T18:30:54.214Z,1.08
2022-09-21T18:34:32.374Z,1.05
2022-09-21T18:38:06.354Z,0.98
2022-09-21T18:41:18.420Z,1.05
2022-09-21T18:44:32.444Z,0.90
2022-09-21T18:47:45.550Z,1.55
2022-09-21T18:50:57.216Z,1.30
2022-09-21T18:54:01.898Z,1.15
2022-09-21T18:57:16.792Z,0.98
2022-09-21T19:00:25.337Z,1.20
2022-09-21T19:03:35.366Z,1.70
2022-09-21T19:06:55.898Z,1.20
2022-09-21T19:10:29.195Z,1.50
2022-09-21T19:14:02.892Z,1.10
2022-09-21T19:17:35.179Z,1.67
2022-09-21T19:20:48.426Z,1.42
2022-09-21T19:24:05.444Z,1.40
2022-09-21T19:27:10.034Z,1.42
2022-09-21T19:30:17.568Z,1.20
2022-09-21T19:33:51.662Z,1.25
2022-09-21T19:37:05.654Z,1.10
2022-09-21T19:40:15.944Z,1.25
2022-09-21T19:43:41.896Z,1.05
2022-09-21T19:47:12.575Z,1.27
2022-09-21T19:50:22.549Z,1.77
2022-09-21T19:53:49.866Z,1.38
2022-09-21T19:57:17.202Z,1.13
2022-09-21T20:00:27.778Z,1.33
2022-09-21T20:03:46.960Z,1.00
2022-09-21T20:07:03.803Z,1.15
2022-09-21T20:10:26.552Z,0.85
2022-09-21T20:13:51.066Z,1.10
2022-09-21T20:17:05.397Z,1.05
2022-09-21T20:20:19.252Z,0.80
2022-09-21T20:23:27.697Z,1.23
2022-09-21T20:26:37.004Z,0.80
2022-09-21T20:29:46.903Z,1.13
2022-09-21T20:32:59.023Z,1.02
2022-09-21T20:36:04.865Z,0.93
2022-09-21T20:39:08.509Z,0.80
2022-09-21T20:42:31.590Z,0.93
2022-09-21T20:45:34.587Z,1.20
2022-09-21T20:48:39.589Z,0.85
2022-09-21T20:51:43.753Z,0.88
2022-09-21T20:54:49.581Z,1.20
2022-09-21T20:57:55.308Z,0.82
2022-09-21T21:01:07.182Z,1.00
2022-09-21T21:04:11.624Z,0.80
2022-09-21T21:07:14.612Z,1.13
2022-09-21T21:10:19.824Z,1.10
2022-09-21T21:13:23.757Z,1.02
2022-09-21T21:16:27.428Z,1.20
2022-09-21T21:19:32.260Z,1.00
2022-09-21T21:22:35.071Z,0.68
2022-09-21T21:25:37.690Z,0.80
2022-09-21T21:28:39.804Z,1.13
2022-09-21T21:31:42.289Z,0.77
2022-09-21T21:34:45.924Z,0.95
2022-09-21T21:37:48.913Z,0.93
2022-09-21T21:40:55.560Z,1.10
2022-09-21T21:43:58.286Z,1.40
2022-09-21T21:47:20.899Z,1.35
2022-09-21T21:50:24.474Z,1.10
2022-09-21T21:53:28.244Z,1.55
2022-09-21T21:56:31.596Z,1.20
2022-09-21T21:59:34.045Z,1.35
2022-09-21T22:02:36.715Z,1.60
2022-09-21T22:05:39.486Z,1.23
2022-09-21T22:08:41.896Z,1.70
2022-09-21T22:11:43.980Z,1.58
2022-09-21T22:14:48.426Z,1.27
2022-09-21T22:20:53.690Z,1.58
2022-09-21T22:23:59.207Z,1.25
2022-09-21T22:27:02.075Z,0.90
2022-09-21T22:30:04.719Z,0.93
2022-09-21T22:33:07.322Z,1.80
2022-09-21T22:36:13.131Z,0.63
2022-09-21T22:39:15.475Z,0.90
2022-09-21T22:42:17.812Z,1.00
2022-09-21T22:45:20.338Z,1.20
2022-09-21T22:48:22.611Z,1.00
2022-09-21T22:51:25.282Z,1.60
2022-09-21T22:54:28.632Z,1.05
2022-09-21T22:57:31.399Z,1.23
2022-09-21T23:00:33.583Z,1.40
2022-09-21T23:03:36.773Z,1.05
2022-09-21T23:06:41.491Z,0.85
2022-09-21T23:09:43.788Z,1.05
2022-09-21T23:12:51.153Z,1.10
2022-09-21T23:15:53.484Z,1.05
2022-09-21T23:18:56.035Z,1.10
2022-09-21T23:21:58.936Z,1.10
2022-09-21T23:25:01.001Z,1.25
2022-09-21T23:28:06.011Z,1.20
2022-09-21T23:31:11.467Z,0.90
2022-09-21T23:34:14.714Z,0.85
2022-09-21T23:37:17.201Z,0.77
2022-09-21T23:40:19.410Z,0.95
2022-09-21T23:43:21.874Z,1.00
2022-09-21T23:46:33.126Z,0.90
